Time;durP1;ratioP1;P1;durP2;ratioP2;P2;SDS_P1;SDS_P2;PMS_P1;PMS_P2;Temp;Humidity;BMP_temperature;BMP_pressure;BME280_temperature;BME280_humidity;BME280_pressure;Samples;Min_cycle;Max_cycle;Signal;HPM_P1;HPM_P2
2023/04/05 00:02:13;;;;;;;4.72;2.28;;;;;;;;;;4988283;28;20059;-51
2023/04/05 00:04:50;;;;;;;5.55;2.55;;;;;;;;;;4984876;28;20050;-54
2023/04/05 00:07:25;;;;;;;4.18;2.22;;;;;;;;;;4989209;28;20054;-54
2023/04/05 00:10:07;;;;;;;5.57;2.38;;;;;;;;;;4977615;28;20054;-54
2023/04/05 00:12:44;;;;;;;7.47;2.50;;;;;;;;;;4988300;28;20060;-55
2023/04/05 00:15:18;;;;;;;6.47;2.40;;;;;;;;;;4983922;28;20072;-53
2023/04/05 00:17:46;;;;;;;7.00;3.10;;;;;;;;;;4987360;28;20414;-46
2023/04/05 00:20:13;;;;;;;7.88;2.88;;;;;;;;;;4984966;28;20049;-54
2023/04/05 00:22:49;;;;;;;5.22;2.53;;;;;;;;;;4988898;28;20137;-51
2023/04/05 00:25:17;;;;;;;8.68;2.58;;;;;;;;;;4990887;28;20046;-53
2023/04/05 00:27:45;;;;;;;5.05;2.45;;;;;;;;;;4989533;28;20508;-60
2023/04/05 00:30:22;;;;;;;4.45;2.38;;;;;;;;;;4987115;28;20052;-50
2023/04/05 00:32:49;;;;;;;7.13;3.42;;;;;;;;;;4988697;28;20650;-60
2023/04/05 00:35:26;;;;;;;4.38;2.65;;;;;;;;;;4987179;28;20548;-60
2023/04/05 00:37:53;;;;;;;4.18;2.38;;;;;;;;;;4989961;28;20057;-60
2023/04/05 00:40:20;;;;;;;8.45;3.05;;;;;;;;;;4991375;28;20054;-60
2023/04/05 00:42:55;;;;;;;5.30;2.40;;;;;;;;;;4990286;28;20073;-60
2023/04/05 00:45:22;;;;;;;6.97;2.63;;;;;;;;;;4989343;28;20057;-61
2023/04/05 00:47:56;;;;;;;4.20;2.33;;;;;;;;;;4989051;28;20056;-51
2023/04/05 00:50:23;;;;;;;8.70;2.80;;;;;;;;;;4987653;28;20645;-55
2023/04/05 00:52:51;;;;;;;6.25;2.60;;;;;;;;;;4991307;28;22052;-54
2023/04/05 00:55:25;;;;;;;6.68;2.45;;;;;;;;;;4987281;28;20414;-54
2023/04/05 00:57:54;;;;;;;5.40;2.85;;;;;;;;;;4992216;28;20061;-63
2023/04/05 01:00:29;;;;;;;3.88;2.20;;;;;;;;;;4991179;28;20566;-46
2023/04/05 01:03:09;;;;;;;4.65;2.80;;;;;;;;;;4985199;28;20058;-50
2023/04/05 01:05:47;;;;;;;3.35;1.77;;;;;;;;;;4984425;28;20133;-46
2023/04/05 01:08:21;;;;;;;6.63;2.75;;;;;;;;;;4984065;28;20129;-45
2023/04/05 01:11:02;;;;;;;6.30;2.60;;;;;;;;;;4986235;28;20050;-47
2023/04/05 01:13:30;;;;;;;5.00;2.83;;;;;;;;;;4989385;28;20068;-47
2023/04/05 01:16:04;;;;;;;4.90;2.90;;;;;;;;;;4991392;28;20049;-60
2023/04/05 01:18:31;;;;;;;3.92;2.40;;;;;;;;;;4985467;28;20486;-60
2023/04/05 01:21:11;;;;;;;7.47;2.92;;;;;;;;;;4985440;28;20082;-61
2023/04/05 01:23:45;;;;;;;6.47;2.50;;;;;;;;;;4984653;28;20141;-60
2023/04/05 01:26:31;;;;;;;4.10;2.42;;;;;;;;;;4986067;28;20498;-51
2023/04/05 01:29:23;;;;;;;6.38;2.78;;;;;;;;;;4983147;28;20050;-60
2023/04/05 01:32:00;;;;;;;5.93;2.85;;;;;;;;;;4986454;28;20058;-60
2023/04/05 01:34:40;;;;;;;3.75;2.40;;;;;;;;;;4991620;28;20061;-60
2023/04/05 01:37:15;;;;;;;8.15;2.78;;;;;;;;;;4989360;28;20081;-60
2023/04/05 01:39:42;;;;;;;7.43;2.90;;;;;;;;;;4986789;28;20457;-60
2023/04/05 01:42:10;;;;;;;7.43;3.35;;;;;;;;;;4985899;28;20502;-60
2023/04/05 01:44:44;;;;;;;5.82;2.92;;;;;;;;;;4986274;28;20120;-56
2023/04/05 01:47:11;;;;;;;7.07;2.97;;;;;;;;;;4981447;28;20133;-58
2023/04/05 01:49:45;;;;;;;4.22;2.40;;;;;;;;;;4984489;28;20068;-59
2023/04/05 01:52:12;;;;;;;5.55;3.15;;;;;;;;;;4989213;28;20133;-59
2023/04/05 01:54:39;;;;;;;10.65;3.10;;;;;;;;;;4987461;28;20201;-62
2023/04/05 01:57:17;;;;;;;5.72;2.90;;;;;;;;;;4981201;28;20058;-55
2023/04/05 01:59:44;;;;;;;5.20;2.58;;;;;;;;;;4986932;28;20097;-54
2023/04/05 02:02:18;;;;;;;5.28;2.65;;;;;;;;;;4987371;28;20050;-51
2023/04/05 02:04:51;;;;;;;5.72;3.10;;;;;;;;;;4983872;28;20058;-54
2023/04/05 02:07:26;;;;;;;8.43;3.15;;;;;;;;;;4984705;28;20050;-51
2023/04/05 02:09:53;;;;;;;7.05;3.22;;;;;;;;;;4986609;28;20052;-53
2023/04/05 02:12:21;;;;;;;7.63;2.97;;;;;;;;;;4986617;28;20494;-60
2023/04/05 02:14:55;;;;;;;8.18;2.88;;;;;;;;;;4982967;28;20927;-60
2023/04/05 02:17:22;;;;;;;10.23;2.85;;;;;;;;;;4984496;28;20480;-61
2023/04/05 02:19:51;;;;;;;6.20;3.05;;;;;;;;;;4988107;28;20064;-60
2023/04/05 02:22:25;;;;;;;9.35;3.60;;;;;;;;;;4989865;28;20042;-58
2023/04/05 02:24:52;;;;;;;6.72;3.28;;;;;;;;;;4983527;28;20057;-62
2023/04/05 02:27:26;;;;;;;6.15;3.10;;;;;;;;;;4981278;28;20054;-61
2023/04/05 02:29:54;;;;;;;6.53;3.10;;;;;;;;;;4986116;28;20046;-61
2023/04/05 02:32:21;;;;;;;6.18;3.28;;;;;;;;;;4989659;28;20050;-61
2023/04/05 02:34:57;;;;;;;4.65;2.88;;;;;;;;;;4982589;28;20051;-62
2023/04/05 02:37:25;;;;;;;5.90;3.10;;;;;;;;;;4986226;28;20054;-62
2023/04/05 02:39:59;;;;;;;9.85;3.15;;;;;;;;;;4989022;28;20054;-60
2023/04/05 02:42:26;;;;;;;9.18;3.40;;;;;;;;;;4986385;28;20058;-60
2023/04/05 02:44:53;;;;;;;10.95;3.40;;;;;;;;;;4985068;28;20458;-60
2023/04/05 02:47:27;;;;;;;12.27;3.38;;;;;;;;;;4985678;28;20177;-60
2023/04/05 02:49:54;;;;;;;8.23;2.83;;;;;;;;;;4987241;28;20065;-57
2023/04/05 02:52:28;;;;;;;6.50;3.03;;;;;;;;;;4981904;28;20658;-49
2023/04/05 02:54:55;;;;;;;12.50;3.88;;;;;;;;;;4970635;28;20064;-51
2023/04/05 02:57:22;;;;;;;10.48;3.17;;;;;;;;;;4987647;28;20089;-57
2023/04/05 02:59:56;;;;;;;7.65;3.10;;;;;;;;;;4992208;28;20081;-53
2023/04/05 03:02:23;;;;;;;7.97;3.30;;;;;;;;;;4992114;28;20046;-53
2023/04/05 03:04:53;;;;;;;6.70;3.30;;;;;;;;;;4989463;28;20729;-54
2023/04/05 03:07:27;;;;;;;9.48;3.30;;;;;;;;;;4993880;28;20076;-50
2023/04/05 03:09:54;;;;;;;4.47;3.05;;;;;;;;;;4991515;28;20058;-49
2023/04/05 03:12:28;;;;;;;8.45;3.53;;;;;;;;;;4988227;28;20140;-52
2023/04/05 03:14:55;;;;;;;8.68;3.28;;;;;;;;;;4988277;28;20152;-57
2023/04/05 03:17:22;;;;;;;7.05;3.30;;;;;;;;;;4987276;28;20046;-56
2023/04/05 03:19:56;;;;;;;7.03;3.03;;;;;;;;;;4992390;28;20053;-56
2023/04/05 03:22:23;;;;;;;;;;;;;;;;;;4989843;28;20505;-56
2023/04/05 03:24:57;;;;;;;11.38;3.40;;;;;;;;;;4990933;28;20024;-53
2023/04/05 03:27:26;;;;;;;10.15;3.53;;;;;;;;;;4989191;28;20437;-48
2023/04/05 03:29:53;;;;;;;5.53;3.55;;;;;;;;;;4987006;28;20189;-53
2023/04/05 03:32:27;;;;;;;9.82;3.70;;;;;;;;;;4987717;28;20169;-54
2023/04/05 03:34:54;;;;;;;9.95;3.47;;;;;;;;;;4995157;28;20077;-55
2023/04/05 03:37:28;;;;;;;9.60;3.80;;;;;;;;;;4990935;28;20670;-60
2023/04/05 03:39:55;;;;;;;;;;;;;;;;;;4987560;28;20066;-60
2023/04/05 03:42:22;;;;;;;9.60;3.70;;;;;;;;;;4988760;28;20377;-60
2023/04/05 03:44:56;;;;;;;9.10;3.65;;;;;;;;;;4987637;28;20058;-60
2023/04/05 03:47:23;;;;;;;7.63;3.75;;;;;;;;;;4989463;28;20046;-59
2023/04/05 03:49:51;;;;;;;8.57;3.67;;;;;;;;;;4987895;28;20112;-60
2023/04/05 03:52:25;;;;;;;13.57;4.15;;;;;;;;;;4992438;28;20054;-60
2023/04/05 03:54:53;;;;;;;8.60;3.88;;;;;;;;;;4988908;28;20054;-45
2023/04/05 03:57:28;;;;;;;9.10;3.75;;;;;;;;;;4987980;28;20050;-46
2023/04/05 03:59:55;;;;;;;8.30;3.72;;;;;;;;;;4988842;28;20109;-46
2023/04/05 04:02:22;;;;;;;10.27;3.55;;;;;;;;;;4991258;28;20133;-48
2023/04/05 04:05:03;;;;;;;8.27;3.60;;;;;;;;;;4990660;28;20062;-49
2023/04/05 04:07:30;;;;;;;10.43;3.80;;;;;;;;;;4986671;28;20050;-53
2023/04/05 04:10:05;;;;;;;10.25;3.60;;;;;;;;;;4988093;28;20046;-50
2023/04/05 04:12:32;;;;;;;9.68;3.90;;;;;;;;;;4991254;28;20077;-53
2023/04/05 04:15:00;;;;;;;8.30;3.20;;;;;;;;;;4987008;28;20407;-56
2023/04/05 04:17:35;;;;;;;10.30;3.53;;;;;;;;;;4987051;28;20090;-52
2023/04/05 04:20:10;;;;;;;8.55;3.10;;;;;;;;;;4989260;28;20050;-56
2023/04/05 04:22:44;;;;;;;8.02;3.60;;;;;;;;;;4986272;28;20525;-52
2023/04/05 04:25:29;;;;;;;8.80;3.53;;;;;;;;;;4987799;28;20046;-45
2023/04/05 04:28:11;;;;;;;7.15;3.83;;;;;;;;;;4990925;28;20101;-46
2023/04/05 04:30:42;;;;;;;8.88;4.22;;;;;;;;;;4986186;28;20050;-46
2023/04/05 04:33:16;;;;;;;6.85;3.50;;;;;;;;;;4989135;28;20042;-46
2023/04/05 04:35:45;;;;;;;;;;;;;;;;;;4990972;28;20058;-60
2023/04/05 04:38:17;;;;;;;7.57;3.45;;;;;;;;;;4988724;28;20008;-60
2023/04/05 04:40:52;;;;;;;7.85;3.38;;;;;;;;;;4985481;28;20062;-60
2023/04/05 04:43:26;;;;;;;13.90;4.03;;;;;;;;;;4987224;28;20136;-59
2023/04/05 04:46:00;;;;;;;9.27;3.60;;;;;;;;;;4986567;28;20140;-60
2023/04/05 04:48:27;;;;;;;8.90;3.65;;;;;;;;;;4982127;28;20605;-60
2023/04/05 04:51:02;;;;;;;9.38;3.53;;;;;;;;;;4984254;28;20146;-60
2023/04/05 04:53:29;;;;;;;8.05;3.60;;;;;;;;;;4976995;28;20052;-54
2023/04/05 04:55:56;;;;;;;14.38;3.90;;;;;;;;;;4985600;28;20054;-50
2023/04/05 04:58:30;;;;;;;14.48;4.68;;;;;;;;;;4991200;28;20056;-54
2023/04/05 05:00:58;;;;;;;6.95;3.65;;;;;;;;;;4985574;28;20466;-54
2023/04/05 05:03:40;;;;;;;6.43;3.60;;;;;;;;;;4982887;28;20482;-49
2023/04/05 05:06:23;;;;;;;9.70;3.80;;;;;;;;;;4983757;28;20042;-51
2023/04/05 05:08:58;;;;;;;5.78;3.42;;;;;;;;;;4988415;28;20052;-47
2023/04/05 05:11:27;;;;;;;6.88;3.25;;;;;;;;;;4988527;28;20054;-53
2023/04/05 05:13:54;;;;;;;8.52;3.97;;;;;;;;;;4992706;28;20160;-60
2023/04/05 05:16:29;;;;;;;6.18;3.38;;;;;;;;;;4986487;28;20134;-56
2023/04/05 05:18:56;;;;;;;;;;;;;;;;;;4988555;28;20054;-60
2023/04/05 05:21:30;;;;;;;8.02;3.63;;;;;;;;;;4989239;28;20012;-58
2023/04/05 05:23:57;;;;;;;14.73;3.15;;;;;;;;;;4986581;28;20050;-59
2023/04/05 05:26:25;;;;;;;6.28;2.75;;;;;;;;;;4987184;28;20189;-59
2023/04/05 05:29:02;;;;;;;9.10;3.40;;;;;;;;;;4991792;28;20054;-54
2023/04/05 05:31:31;;;;;;;5.88;3.20;;;;;;;;;;4987598;28;20042;-47
2023/04/05 05:34:05;;;;;;;9.23;3.25;;;;;;;;;;4985013;28;20046;-49
2023/04/05 05:36:32;;;;;;;13.32;3.50;;;;;;;;;;4988978;28;20149;-47
2023/04/05 05:38:59;;;;;;;6.05;3.42;;;;;;;;;;4985874;28;20134;-46
2023/04/05 05:41:34;;;;;;;10.48;3.72;;;;;;;;;;4982165;28;20082;-46
2023/04/05 05:44:01;;;;;;;9.68;3.53;;;;;;;;;;4990032;28;20058;-48
2023/04/05 05:46:35;;;;;;;12.50;4.68;;;;;;;;;;4982941;28;20129;-48
2023/04/05 05:49:02;;;;;;;8.02;3.55;;;;;;;;;;4985888;28;20093;-52
2023/04/05 05:51:35;;;;;;;7.32;2.80;;;;;;;;;;4987137;28;20129;-48
2023/04/05 05:54:09;;;;;;;7.75;3.53;;;;;;;;;;4989143;28;20062;-48
2023/04/05 05:56:36;;;;;;;6.30;3.33;;;;;;;;;;4984973;28;20133;-49
2023/04/05 05:59:16;;;;;;;9.73;4.00;;;;;;;;;;4986938;28;20054;-62
2023/04/05 06:01:45;;;;;;;10.27;4.60;;;;;;;;;;4990767;28;20058;-49
2023/04/05 06:04:33;;;;;;;18.23;5.07;;;;;;;;;;4983621;28;20054;-51
2023/04/05 06:07:07;;;;;;;8.60;3.40;;;;;;;;;;4984026;28;20054;-49
2023/04/05 06:09:41;;;;;;;10.90;3.80;;;;;;;;;;4981883;28;20050;-54
2023/04/05 06:12:08;;;;;;;16.35;4.40;;;;;;;;;;4985367;28;20050;-50
2023/04/05 06:14:35;;;;;;;12.02;5.25;;;;;;;;;;4983681;28;20493;-54
2023/04/05 06:17:09;;;;;;;19.20;6.03;;;;;;;;;;4986311;28;20054;-51
2023/04/05 06:19:36;;;;;;;12.07;4.50;;;;;;;;;;4986927;28;20089;-52
2023/04/05 06:22:10;;;;;;;9.23;4.15;;;;;;;;;;4987620;28;20054;-52
2023/04/05 06:24:37;;;;;;;;;;;;;;;;;;4986718;28;20069;-54
2023/04/05 06:27:04;;;;;;;6.82;3.50;;;;;;;;;;4990121;28;19928;-44
2023/04/05 06:29:38;;;;;;;5.45;3.30;;;;;;;;;;4991409;28;20128;-51
2023/04/05 06:32:05;;;;;;;;;;;;;;;;;;4993714;28;20058;-48
2023/04/05 06:34:38;;;;;;;12.02;4.05;;;;;;;;;;4989978;28;19929;-50
2023/04/05 06:37:13;;;;;;;10.82;4.40;;;;;;;;;;4988237;28;20050;-52
2023/04/05 06:39:40;;;;;;;8.57;3.63;;;;;;;;;;4990626;28;20064;-48
2023/04/05 06:42:07;;;;;;;6.75;3.60;;;;;;;;;;4990104;28;20133;-52
2023/04/05 06:44:41;;;;;;;8.57;3.47;;;;;;;;;;4995310;28;20068;-62
2023/04/05 06:47:08;;;;;;;5.75;3.28;;;;;;;;;;4991977;28;20041;-61
2023/04/05 06:49:43;;;;;;;13.40;3.67;;;;;;;;;;4991539;28;20513;-62
2023/04/05 06:52:10;;;;;;;5.50;3.05;;;;;;;;;;4991906;28;20430;-61
2023/04/05 06:54:38;;;;;;;6.55;3.55;;;;;;;;;;4996248;28;20096;-50
2023/04/05 06:57:12;;;;;;;8.13;3.95;;;;;;;;;;4987180;28;20051;-49
2023/04/05 06:59:39;;;;;;;5.70;3.33;;;;;;;;;;4993582;28;20151;-46
2023/04/05 07:02:13;;;;;;;7.00;3.10;;;;;;;;;;4990180;28;20100;-49
2023/04/05 07:04:47;;;;;;;6.00;3.20;;;;;;;;;;4990685;28;20430;-46
2023/04/05 07:07:21;;;;;;;7.43;3.67;;;;;;;;;;4990351;28;20046;-48
2023/04/05 07:09:48;;;;;;;8.77;3.83;;;;;;;;;;4992061;28;20137;-48
2023/04/05 07:12:18;;;;;;;7.25;3.30;;;;;;;;;;4993042;28;20078;-55
2023/04/05 07:14:52;;;;;;;6.68;3.50;;;;;;;;;;4991301;28;20136;-55
2023/04/05 07:17:19;;;;;;;12.10;3.03;;;;;;;;;;4992063;28;20133;-56
2023/04/05 07:19:53;;;;;;;6.93;3.47;;;;;;;;;;4990469;28;20051;-53
2023/04/05 07:22:20;;;;;;;6.05;3.13;;;;;;;;;;4990212;28;20141;-51
2023/04/05 07:24:47;;;;;;;8.25;3.60;;;;;;;;;;4990431;28;20050;-49
2023/04/05 07:27:22;;;;;;;6.22;3.10;;;;;;;;;;4990370;28;20054;-50
2023/04/05 07:29:49;;;;;;;6.95;3.50;;;;;;;;;;4991772;28;20052;-52
2023/04/05 07:32:23;;;;;;;5.93;2.92;;;;;;;;;;4989782;28;20093;-52
2023/04/05 07:34:50;;;;;;;8.98;3.17;;;;;;;;;;4989432;28;20622;-53
2023/04/05 07:37:18;;;;;;;5.85;3.10;;;;;;;;;;4987690;28;20604;-50
2023/04/05 07:39:52;;;;;;;7.38;3.25;;;;;;;;;;4991189;28;20057;-50
2023/04/05 07:42:20;;;;;;;6.47;3.15;;;;;;;;;;4990862;28;20144;-61
2023/04/05 07:44:54;;;;;;;7.70;2.83;;;;;;;;;;4991679;28;20425;-60
2023/04/05 07:47:22;;;;;;;4.80;2.20;;;;;;;;;;4993497;28;20064;-60
2023/04/05 07:49:49;;;;;;;9.73;3.13;;;;;;;;;;4992080;28;20069;-60
2023/04/05 07:52:23;;;;;;;3.00;1.98;;;;;;;;;;4988773;28;20049;-54
2023/04/05 07:54:51;;;;;;;4.63;1.85;;;;;;;;;;4989809;28;20057;-50
2023/04/05 07:57:26;;;;;;;2.88;2.13;;;;;;;;;;4991936;28;20052;-52
2023/04/05 07:59:54;;;;;;;5.75;1.90;;;;;;;;;;4992092;28;20050;-48
2023/04/05 08:02:21;;;;;;;5.75;1.95;;;;;;;;;;4991657;28;20113;-48
2023/04/05 08:05:02;;;;;;;3.10;1.58;;;;;;;;;;4988331;28;20054;-46
2023/04/05 08:07:40;;;;;;;4.03;2.15;;;;;;;;;;4987749;28;20482;-50
2023/04/05 08:10:14;;;;;;;2.95;1.98;;;;;;;;;;4993338;28;20058;-60
2023/04/05 08:12:41;;;;;;;7.13;2.17;;;;;;;;;;4991157;28;20536;-60
2023/04/05 08:15:16;;;;;;;5.18;2.20;;;;;;;;;;4989773;28;20055;-60
2023/04/05 08:17:43;;;;;;;3.58;1.92;;;;;;;;;;4990023;28;20091;-65
2023/04/05 08:20:17;;;;;;;4.78;2.78;;;;;;;;;;4989916;28;20066;-55
2023/04/05 08:22:44;;;;;;;7.57;2.35;;;;;;;;;;4985931;28;20050;-56
2023/04/05 08:25:11;;;;;;;2.10;1.48;;;;;;;;;;4988403;28;20574;-57
2023/04/05 08:27:45;;;;;;;8.98;2.40;;;;;;;;;;4987928;28;20056;-54
2023/04/05 08:30:12;;;;;;;6.15;2.13;;;;;;;;;;4987257;28;20059;-58
2023/04/05 08:32:46;;;;;;;7.22;1.90;;;;;;;;;;4986836;28;20050;-56
2023/04/05 08:35:13;;;;;;;3.35;1.70;;;;;;;;;;4990472;28;20057;-54
2023/04/05 08:37:40;;;;;;;1.90;1.20;;;;;;;;;;4987824;28;20054;-55
2023/04/05 08:40:14;;;;;;;3.22;1.90;;;;;;;;;;4986872;28;20133;-55
2023/04/05 08:43:01;;;;;;;2.72;1.40;;;;;;;;;;4986867;28;20088;-50
2023/04/05 08:45:43;;;;;;;2.70;1.40;;;;;;;;;;4989518;28;20060;-50
2023/04/05 08:48:10;;;;;;;4.85;1.23;;;;;;;;;;4986714;28;20042;-61
2023/04/05 08:50:51;;;;;;;3.42;1.20;;;;;;;;;;4992148;28;20509;-49
2023/04/05 08:53:25;;;;;;;2.53;1.05;;;;;;;;;;4987599;28;20093;-63
2023/04/05 08:55:54;;;;;;;3.25;1.30;;;;;;;;;;4991197;28;20072;-63
2023/04/05 08:58:22;;;;;;;4.18;1.58;;;;;;;;;;4988888;28;20141;-63
2023/04/05 09:00:56;;;;;;;2.28;1.17;;;;;;;;;;4986614;28;20417;-64
2023/04/05 09:03:26;;;;;;;4.72;1.80;;;;;;;;;;4985030;28;20573;-63
2023/04/05 09:06:07;;;;;;;3.17;1.42;;;;;;;;;;4970529;28;20058;-63
2023/04/05 09:08:34;;;;;;;4.20;1.50;;;;;;;;;;4966619;28;20061;-63
2023/04/05 09:11:08;;;;;;;3.95;1.40;;;;;;;;;;4968197;28;20057;-63
2023/04/05 09:13:35;;;;;;;2.70;1.50;;;;;;;;;;4968810;28;20490;-63
2023/04/05 09:16:02;;;;;;;2.60;1.58;;;;;;;;;;4967360;28;20047;-63
2023/04/05 09:18:37;;;;;;;5.57;1.75;;;;;;;;;;4968404;28;20047;-60
2023/04/05 09:21:04;;;;;;;2.90;1.50;;;;;;;;;;4968253;28;20051;-53
2023/04/05 09:23:38;;;;;;;3.67;1.27;;;;;;;;;;4965736;28;20955;-50
2023/04/05 09:26:05;;;;;;;;;;;;;;;;;;4971141;28;20247;-53
2023/04/05 09:28:41;;;;;;;1.65;0.77;;;;;;;;;;4971607;28;19926;-53
2023/04/05 09:31:33;;;;;;;4.18;0.90;;;;;;;;;;4968189;28;20400;-52
2023/04/05 09:34:05;;;;;;;2.35;1.08;;;;;;;;;;4964903;28;20071;-56
2023/04/05 09:36:44;;;;;;;2.70;1.38;;;;;;;;;;4968111;28;20065;-58
2023/04/05 09:39:11;;;;;;;3.05;1.60;;;;;;;;;;4966214;28;20055;-57
2023/04/05 09:41:40;;;;;;;5.78;1.70;;;;;;;;;;4968150;28;20177;-58
2023/04/05 09:44:14;;;;;;;4.20;1.40;;;;;;;;;;4966143;28;20063;-55
2023/04/05 09:46:42;;;;;;;6.57;1.60;;;;;;;;;;4964581;28;20065;-56
2023/04/05 09:49:32;;;;;;;3.75;1.50;;;;;;;;;;4966820;28;20058;-51
2023/04/05 09:52:21;;;;;;;4.03;1.60;;;;;;;;;;4964086;28;20050;-53
2023/04/05 09:54:56;;;;;;;4.30;1.80;;;;;;;;;;4962683;28;20058;-53
2023/04/05 09:57:26;;;;;;;2.45;1.35;;;;;;;;;;4967301;28;20050;-54
2023/04/05 10:00:00;;;;;;;3.25;1.40;;;;;;;;;;4967780;28;20056;-56
2023/04/05 10:02:37;;;;;;;4.97;1.30;;;;;;;;;;4970909;28;20150;-57
2023/04/05 10:05:17;;;;;;;3.20;1.20;;;;;;;;;;4983766;28;20150;-56
2023/04/05 10:07:45;;;;;;;3.50;1.33;;;;;;;;;;4990124;28;20084;-54
2023/04/05 10:10:21;;;;;;;2.97;1.15;;;;;;;;;;4991518;28;20076;-53
2023/04/05 10:12:49;;;;;;;2.92;1.33;;;;;;;;;;4990325;28;20054;-57
2023/04/05 10:15:23;;;;;;;3.40;1.45;;;;;;;;;;4996357;28;20532;-53
2023/04/05 10:17:55;;;;;;;2.35;1.15;;;;;;;;;;4992937;28;20053;-54
2023/04/05 10:20:23;;;;;;;2.78;1.40;;;;;;;;;;4994551;28;20066;-55
2023/04/05 10:23:20;;;;;;;2.42;1.40;;;;;;;;;;4991036;28;20050;-56
2023/04/05 10:25:54;;;;;;;3.58;1.50;;;;;;;;;;4992365;28;20042;-54
2023/04/05 10:28:32;;;;;;;4.78;1.15;;;;;;;;;;4993113;28;20056;-53
2023/04/05 10:31:25;;;;;;;5.55;1.35;;;;;;;;;;4994289;28;20052;-52
2023/04/05 10:34:08;;;;;;;5.28;1.40;;;;;;;;;;4994127;28;20447;-63
2023/04/05 10:36:49;;;;;;;4.40;1.50;;;;;;;;;;4993298;28;20050;-63
2023/04/05 10:39:24;;;;;;;2.17;1.20;;;;;;;;;;4996838;28;20513;-63
2023/04/05 10:42:06;;;;;;;3.78;1.35;;;;;;;;;;4996240;28;20053;-54
2023/04/05 10:44:35;;;;;;;3.28;1.20;;;;;;;;;;4997539;28;20058;-59
2023/04/05 10:47:10;;;;;;;2.05;1.13;;;;;;;;;;4991681;28;20081;-52
2023/04/05 10:49:37;;;;;;;5.30;1.35;;;;;;;;;;4994937;28;20054;-54
2023/04/05 10:52:05;;;;;;;3.58;1.10;;;;;;;;;;4995492;28;20046;-55
2023/04/05 10:54:40;;;;;;;2.40;1.00;;;;;;;;;;4996196;28;20148;-55
2023/04/05 10:57:08;;;;;;;1.58;1.05;;;;;;;;;;4996529;28;20097;-57
2023/04/05 10:59:43;;;;;;;2.85;1.35;;;;;;;;;;4991368;28;20064;-56
2023/04/05 11:02:11;;;;;;;6.28;1.45;;;;;;;;;;4996873;28;20098;-58
2023/04/05 11:04:38;;;;;;;;;;;;;;;;;;4970091;28;20139;-59
2023/04/05 11:07:22;;;;;;;3.25;1.20;;;;;;;;;;4953233;28;20341;-59
2023/04/05 11:09:53;;;;;;;2.15;1.30;;;;;;;;;;4953586;28;20142;-57
2023/04/05 11:12:56;;;;;;;3.17;1.10;;;;;;;;;;4955376;28;20151;-59
2023/04/05 11:15:29;;;;;;;3.15;1.23;;;;;;;;;;4938601;28;20405;-56
2023/04/05 11:18:03;;;;;;;1.73;0.80;;;;;;;;;;4955607;28;20127;-52
2023/04/05 11:20:40;;;;;;;2.92;1.10;;;;;;;;;;4946603;28;20507;-55
2023/04/05 11:23:15;;;;;;;4.95;1.52;;;;;;;;;;4938005;28;20057;-50
2023/04/05 11:26:05;;;;;;;2.95;1.17;;;;;;;;;;4940128;28;20063;-54
2023/04/05 11:28:39;;;;;;;1.05;0.70;;;;;;;;;;4937890;28;20529;-61
2023/04/05 11:31:15;;;;;;;2.75;1.20;;;;;;;;;;4946077;28;20078;-61
2023/04/05 11:33:59;;;;;;;3.28;1.08;;;;;;;;;;4937264;28;20063;-61
2023/04/05 11:36:31;;;;;;;3.90;1.27;;;;;;;;;;4941779;28;20133;-60
2023/04/05 11:39:17;;;;;;;1.25;0.80;;;;;;;;;;4944093;28;20063;-61
2023/04/05 11:41:52;;;;;;;4.90;1.10;;;;;;;;;;4938716;28;20058;-63
2023/04/05 11:44:26;;;;;;;2.15;0.73;;;;;;;;;;4943971;28;20167;-50
2023/04/05 11:46:53;;;;;;;1.75;0.80;;;;;;;;;;4939276;28;20491;-54
2023/04/05 11:49:21;;;;;;;;;;;;;;;;;;4939119;28;20059;-52
2023/04/05 11:51:55;;;;;;;2.85;1.02;;;;;;;;;;4935766;28;20309;-53
2023/04/05 11:54:32;;;;;;;1.13;0.77;;;;;;;;;;4941800;28;20070;-52
2023/04/05 11:57:11;;;;;;;2.80;0.70;;;;;;;;;;4942396;28;20078;-59
2023/04/05 11:59:38;;;;;;;1.60;0.70;;;;;;;;;;4955313;28;20511;-55
2023/04/05 12:02:12;;;;;;;2.47;1.05;;;;;;;;;;4939237;28;20062;-58
2023/04/05 12:04:39;;;;;;;;;;;;;;;;;;4956865;28;20085;-55
2023/04/05 12:07:20;;;;;;;0.68;0.55;;;;;;;;;;4982717;28;19961;-58
2023/04/05 12:10:15;;;;;;;1.70;0.70;;;;;;;;;;4979294;28;20059;-58
2023/04/05 12:12:50;;;;;;;2.28;0.77;;;;;;;;;;4980729;28;20154;-55
2023/04/05 12:15:17;;;;;;;1.80;1.00;;;;;;;;;;4983416;28;20054;-54
2023/04/05 12:17:53;;;;;;;1.15;0.70;;;;;;;;;;4982630;28;20588;-56
2023/04/05 12:20:25;;;;;;;1.98;0.88;;;;;;;;;;4981521;28;20050;-56
2023/04/05 12:22:58;;;;;;;;;;;;;;;;;;4981685;28;20499;-58
2023/04/05 12:25:26;;;;;;;1.52;0.82;;;;;;;;;;4981357;28;19967;-54
2023/04/05 12:28:07;;;;;;;2.55;1.00;;;;;;;;;;4979860;28;20493;-49
2023/04/05 12:30:36;;;;;;;1.77;0.75;;;;;;;;;;4980185;28;20079;-56
2023/04/05 12:33:10;;;;;;;2.40;0.85;;;;;;;;;;4981050;28;20095;-55
2023/04/05 12:35:38;;;;;;;2.95;0.73;;;;;;;;;;4983402;28;20054;-58
2023/04/05 12:38:07;;;;;;;2.53;0.93;;;;;;;;;;4986544;28;20058;-52
2023/04/05 12:40:41;;;;;;;1.55;0.80;;;;;;;;;;4989043;28;20473;-53
2023/04/05 12:43:08;;;;;;;1.85;0.63;;;;;;;;;;4989131;28;20493;-51
2023/04/05 12:45:42;;;;;;;1.20;0.70;;;;;;;;;;4987414;28;20054;-62
2023/04/05 12:48:14;;;;;;;2.60;0.80;;;;;;;;;;4990834;28;20058;-61
2023/04/05 12:50:43;;;;;;;1.85;1.00;;;;;;;;;;4986825;28;20518;-62
2023/04/05 12:53:19;;;;;;;2.78;0.90;;;;;;;;;;4987172;28;20042;-61
2023/04/05 12:55:50;;;;;;;3.65;1.13;;;;;;;;;;4987354;28;20061;-58
2023/04/05 12:58:35;;;;;;;2.92;0.70;;;;;;;;;;4986965;28;20058;-58
2023/04/05 13:01:03;;;;;;;2.30;1.02;;;;;;;;;;4988463;28;20137;-55
2023/04/05 13:03:37;;;;;;;2.03;0.90;;;;;;;;;;4988823;28;20141;-54
2023/04/05 13:06:11;;;;;;;;;;;;;;;;;;4986855;28;20491;-58
2023/04/05 13:08:51;;;;;;;1.17;0.90;;;;;;;;;;4987644;28;19922;-56
2023/04/05 13:11:19;;;;;;;0.80;0.80;;;;;;;;;;4988544;28;20084;-57
2023/04/05 13:13:53;;;;;;;4.40;1.50;;;;;;;;;;4989769;28;20116;-54
2023/04/05 13:16:20;;;;;;;3.25;1.33;;;;;;;;;;4987889;28;20058;-54
2023/04/05 13:18:47;;;;;;;1.45;0.90;;;;;;;;;;4991280;28;20054;-57
2023/04/05 13:21:21;;;;;;;4.22;1.23;;;;;;;;;;4990872;28;20497;-55
2023/04/05 13:23:48;;;;;;;2.75;1.00;;;;;;;;;;4988494;28;20054;-55
2023/04/05 13:26:22;;;;;;;2.30;0.98;;;;;;;;;;4990281;28;20133;-58
2023/04/05 13:28:49;;;;;;;3.22;0.90;;;;;;;;;;4980679;28;20138;-52
2023/04/05 13:31:16;;;;;;;2.63;1.00;;;;;;;;;;4983999;28;20146;-53
2023/04/05 13:33:50;;;;;;;2.20;1.00;;;;;;;;;;4988057;28;20133;-55
2023/04/05 13:36:17;;;;;;;2.75;0.88;;;;;;;;;;4987145;28;20526;-54
2023/04/05 13:38:51;;;;;;;2.75;0.95;;;;;;;;;;4985914;28;20085;-50
2023/04/05 13:41:18;;;;;;;1.75;0.68;;;;;;;;;;4984697;28;20054;-56
2023/04/05 13:43:45;;;;;;;1.10;0.70;;;;;;;;;;4980532;28;20050;-51
2023/04/05 13:46:19;;;;;;;2.45;1.20;;;;;;;;;;4980248;28;20062;-51
2023/04/05 13:48:46;;;;;;;1.45;0.85;;;;;;;;;;4977374;28;20077;-57
2023/04/05 13:51:13;;;;;;;3.53;1.05;;;;;;;;;;4976180;28;20054;-62
2023/04/05 13:53:47;;;;;;;2.05;1.13;;;;;;;;;;4977709;28;20340;-49
2023/04/05 13:56:14;;;;;;;4.43;1.30;;;;;;;;;;4979294;28;20054;-48
2023/04/05 13:58:48;;;;;;;0.98;0.65;;;;;;;;;;4975669;28;20498;-53
2023/04/05 14:01:15;;;;;;;2.70;1.00;;;;;;;;;;4979118;28;20058;-49
2023/04/05 14:03:42;;;;;;;2.38;1.00;;;;;;;;;;4982707;28;20064;-51
2023/04/05 14:06:23;;;;;;;2.40;1.00;;;;;;;;;;4977079;28;20062;-53
2023/04/05 14:08:53;;;;;;;2.15;1.20;;;;;;;;;;4977151;28;20137;-51
2023/04/05 14:11:28;;;;;;;2.35;0.80;;;;;;;;;;4980777;28;20073;-62
2023/04/05 14:13:55;;;;;;;1.98;0.98;;;;;;;;;;4980940;28;20134;-62
2023/04/05 14:16:22;;;;;;;0.98;0.80;;;;;;;;;;4978767;28;20054;-61
2023/04/05 14:18:56;;;;;;;6.30;1.00;;;;;;;;;;4979573;28;20051;-61
2023/04/05 14:21:24;;;;;;;1.25;0.80;;;;;;;;;;4980670;28;20532;-63
2023/04/05 14:23:58;;;;;;;1.10;0.77;;;;;;;;;;4979323;28;20055;-61
2023/04/05 14:26:26;;;;;;;3.03;1.00;;;;;;;;;;4982361;28;20420;-61
2023/04/05 14:28:53;;;;;;;5.20;1.30;;;;;;;;;;4979394;28;20066;-61
2023/04/05 14:31:27;;;;;;;4.45;0.98;;;;;;;;;;4979601;28;20069;-62
2023/04/05 14:33:54;;;;;;;2.88;1.27;;;;;;;;;;4983902;28;20069;-61
2023/04/05 14:36:28;;;;;;;2.05;1.00;;;;;;;;;;4977146;28;20064;-61
2023/04/05 14:38:55;;;;;;;2.17;1.00;;;;;;;;;;4978969;28;20060;-59
2023/04/05 14:41:22;;;;;;;2.25;0.93;;;;;;;;;;4978483;28;20094;-58
2023/04/05 14:43:56;;;;;;;1.80;1.30;;;;;;;;;;4979635;28;20046;-58
2023/04/05 14:46:23;;;;;;;2.00;0.95;;;;;;;;;;4978590;28;20054;-58
2023/04/05 14:48:50;;;;;;;3.85;1.08;;;;;;;;;;4983306;28;20422;-56
2023/04/05 14:51:24;;;;;;;2.38;0.95;;;;;;;;;;4984008;28;20053;-51
2023/04/05 14:53:52;;;;;;;3.03;1.05;;;;;;;;;;4982582;28;20141;-51
2023/04/05 14:56:19;;;;;;;1.45;1.00;;;;;;;;;;4983615;28;20480;-52
2023/04/05 14:58:53;;;;;;;2.20;1.13;;;;;;;;;;4982133;28;20050;-47
2023/04/05 15:01:20;;;;;;;2.40;1.25;;;;;;;;;;4983325;28;20070;-54
2023/04/05 15:03:54;;;;;;;2.47;0.98;;;;;;;;;;4984795;28;20061;-50
2023/04/05 15:06:27;;;;;;;2.08;0.80;;;;;;;;;;4983119;28;20546;-51
2023/04/05 15:09:02;;;;;;;3.83;1.23;;;;;;;;;;4980756;28;20176;-53
2023/04/05 15:11:32;;;;;;;1.60;0.80;;;;;;;;;;4981516;28;20055;-52
2023/04/05 15:14:00;;;;;;;2.47;1.40;;;;;;;;;;4984157;28;20050;-52
2023/04/05 15:16:44;;;;;;;2.05;0.95;;;;;;;;;;4981246;28;20064;-56